Gilgit Weather



Gilgit's Current Weather

Temprature 20.44o few clouds

few clouds

Rain: 0 %

Min Temprature20.44o
Max Temprature20.44o
Humidity61
Wind Speed0.86 m/h
Sun Rise05:53:25
Sun Set17:55:01
Current Time: 26-Sep-2022 07:24:51
Lat/Lon: 35.9221, 74.3087




Gilgit's Geo Location



Gilgit's Weather Forecast

Time Overall Temp Min Temp Max Temp Humidity Wind Speed Rain
26-Sep-2022 (Mon)
08:00:00 clear sky 21.260 21.260 21.260 57 0.64 m/h 0 %
11:00:00 clear sky 22.370 22.370 24.590 51 0.44 m/h 0 %
14:00:00 clear sky 25.070 25.070 26.970 37 0.74 m/h 0 %
17:00:00 clear sky 27.230 27.230 27.230 24 0.64 m/h 0 %
20:00:00 clear sky 25.440 25.440 25.440 33 0.82 m/h 0 %
23:00:00 clear sky 23.740 23.740 23.740 35 0.9 m/h 0 %
27-Sep-2022 (Tue)
02:00:00 clear sky 22.050 22.050 22.050 36 1.64 m/h 0 %
05:00:00 clear sky 20.530 20.530 20.530 39 1.62 m/h 0 %
08:00:00 clear sky 22.940 22.940 22.940 29 1.01 m/h 0 %
11:00:00 clear sky 26.080 26.080 26.080 23 0.67 m/h 0 %
14:00:00 clear sky 28.250 28.250 28.250 19 1.44 m/h 0 %
17:00:00 few clouds 27.920 27.920 27.920 21 0.87 m/h 0 %
20:00:00 scattered clouds 25.560 25.560 25.560 34 0.71 m/h 0 %
23:00:00 scattered clouds 24.150 24.150 24.150 41 1.35 m/h 0 %
28-Sep-2022 (Wed)
02:00:00 light rain 22.620 22.620 22.620 43 1.33 m/h 13 %
05:00:00 light rain 21.430 21.430 21.430 47 1.16 m/h 26 %
08:00:00 light rain 22.230 22.230 22.230 48 1.5 m/h 47 %
11:00:00 light rain 24.630 24.630 24.630 42 2.01 m/h 78 %
14:00:00 light rain 26.650 26.650 26.650 32 0.59 m/h 13 %
17:00:00 light rain 25.140 25.140 25.140 39 1.68 m/h 46 %
20:00:00 light rain 20.940 20.940 20.940 64 1.36 m/h 156 %
23:00:00 moderate rain 18.530 18.530 18.530 82 2.46 m/h 302 %
29-Sep-2022 (Thu)
02:00:00 light rain 17.650 17.650 17.650 84 1.48 m/h 108 %
05:00:00 light rain 17.130 17.130 17.130 83 0.58 m/h 17 %
08:00:00 broken clouds 18.300 18.300 18.300 73 0.23 m/h 0 %
11:00:00 light rain 22.250 22.250 22.250 53 0.37 m/h 17 %
14:00:00 light rain 24.970 24.970 24.970 40 1.53 m/h 52 %
17:00:00 light rain 25.180 25.180 25.180 38 0.8 m/h 20 %
20:00:00 light rain 23.440 23.440 23.440 48 0.86 m/h 33 %
23:00:00 light rain 21.910 21.910 21.910 54 0.61 m/h 17 %
30-Sep-2022 (Fri)
02:00:00 clear sky 20.980 20.980 20.980 58 0.4 m/h 0 %
05:00:00 clear sky 19.940 19.940 19.940 61 0.65 m/h 0 %
08:00:00 clear sky 21.680 21.680 21.680 50 0.77 m/h 0 %
11:00:00 clear sky 24.610 24.610 24.610 42 1.01 m/h 0 %
14:00:00 few clouds 26.650 26.650 26.650 34 1.39 m/h 0 %
17:00:00 few clouds 26.650 26.650 26.650 33 1.09 m/h 0 %
20:00:00 light rain 24.080 24.080 24.080 43 2.02 m/h 11 %
23:00:00 light rain 22.650 22.650 22.650 51 1.07 m/h 26 %
01-Oct-2022 (Sat)
02:00:00 clear sky 21.020 21.020 21.020 59 1.48 m/h 0 %
05:00:00 clear sky 19.810 19.810 19.810 63 1.42 m/h 0 %

Famous Cities (61)